Pagrindinis puslapis
METAR-TAF:

METAR-TAF

Oro uostai :

Sarbriukenas, Vokietija

platuma: 49-13N, ilguma: 007-07E, Aukštis: 322 m

Dabartinis oras

Ataskaita buvo paskelbta 10 minutes, ne 00:50 UTC
Vėjas 11 kt iš Šiaurės/Šiaurės Rytų, svyruoja nuo Šiaurės/Šiaurės Vakarų ir Rytų/Šiaurės Rytų
Temperatūra 6°C
Drėgmė 70%
Slėgis 1020 hPa
Matomumas 10 km arba daugiau
nėra debesų žemiau 1500 m ir nėra kamuolinių lietaus debesų

METAR: EDDR 290050Z 02011KT 340V060 CAVOK 06/01 Q1020

Laikas: 03:00 (01:00 UTC)

Prognozė

Ataskaita buvo paskelbta 2 valandos ir 0 minutes, ne 23:00 UTC
Prognozė galioja nuo 29 metu 00 UTC su 29 metu 24 UTC
Vėjas 10 kt iš Šiaurės/Šiaurės Rytų
Matomumas 10 km arba daugiau
Išsisklaidę debesys ne aukštis 3500 ft
Laikinai
nuo 29 metu 11 UTC su 29 metu 24 UTC
Vėjas 15 kt iš Šiaurės/Šiaurės Rytų su gūsio iki 30 kt
Tikimybė 30% :
Laikinai
nuo 29 metu 16 UTC su 29 metu 24 UTC
Su prošvaistėmis ne aukštis 1200 ft

TAF: EDDR 282300Z 2900/2924 02010KT 9999 SCT035 TEMPO 2911/2924 02015G30KT PROB30 TEMPO 2916/2924 BKN012

Orai ataskaitas ir orų prognozės (METAR, TAF).

turimą stotys yra geltonos ir raudonos taškus žemėlapyje.

Perkelti pele per norėdami pamatyti stoties vardą.

Tada spustelėkite, norėdami matyti oro stebėjimo ir prognozės.

Norėdami pakeisti žemėlapį: spustelėkite ant žalios mygtukų su juodo kryžiaus žemyn,; žalią mygtuką su brūkšneliu, jei norite nutolinti; arba žalių rodyklių gretimoms žemėlapius.


METAR-TAF: